createdAt,value
2023-05-14T00:01:08.571Z,6.97
2023-05-14T00:03:37.476Z,6.00
2023-05-14T00:06:05.901Z,6.33
2023-05-14T00:08:35.708Z,6.77
2023-05-14T00:11:03.894Z,5.73
2023-05-14T00:13:32.296Z,5.80
2023-05-14T00:16:00.490Z,7.17
2023-05-14T00:18:28.804Z,7.60
2023-05-14T00:20:56.981Z,9.80
2023-05-14T00:23:25.455Z,6.77
2023-05-14T00:25:54.959Z,7.17
2023-05-14T00:28:23.127Z,9.47
2023-05-14T00:30:51.305Z,8.93
2023-05-14T00:33:19.466Z,11.10
2023-05-14T00:35:47.608Z,9.80
2023-05-14T00:38:19.265Z,8.47
2023-05-14T00:40:51.309Z,7.37
2023-05-14T00:43:22.483Z,8.57
2023-05-14T00:45:51.734Z,8.23
2023-05-14T00:48:20.051Z,6.83
2023-05-14T00:50:48.342Z,6.87
2023-05-14T00:53:16.503Z,10.27
2023-05-14T00:55:44.675Z,7.73
2023-05-14T00:58:13.597Z,8.37
2023-05-14T01:00:43.582Z,7.73
2023-05-14T01:03:11.984Z,8.60
2023-05-14T01:05:43.177Z,7.07
2023-05-14T01:08:14.917Z,9.33
2023-05-14T01:10:47.150Z,11.20
2023-05-14T01:13:20.882Z,7.73
2023-05-14T01:15:51.012Z,8.10
2023-05-14T01:18:20.079Z,11.10
2023-05-14T01:20:52.115Z,7.97
2023-05-14T01:23:22.033Z,11.43
2023-05-14T01:25:50.230Z,7.33
2023-05-14T01:28:19.784Z,7.77
2023-05-14T01:30:51.034Z,9.07
2023-05-14T01:33:20.885Z,8.00
2023-05-14T01:35:49.183Z,9.47
2023-05-14T01:38:19.555Z,7.13
2023-05-14T01:40:49.279Z,9.80
2023-05-14T01:43:17.904Z,8.20
2023-05-14T01:45:46.221Z,7.67
2023-05-14T01:48:14.467Z,7.93
2023-05-14T01:50:42.884Z,9.30
2023-05-14T01:53:11.055Z,11.27
2023-05-14T01:55:39.206Z,7.67
2023-05-14T01:58:08.694Z,9.73
2023-05-14T02:00:36.847Z,13.07
2023-05-14T02:03:05.101Z,9.53
2023-05-14T02:05:33.320Z,9.90
2023-05-14T02:08:01.466Z,7.80
2023-05-14T02:10:29.629Z,8.63
2023-05-14T02:12:57.804Z,8.63
2023-05-14T02:15:27.294Z,8.70
2023-05-14T02:17:55.460Z,9.00
2023-05-14T02:20:23.814Z,8.93
2023-05-14T02:22:52.125Z,7.90
2023-05-14T02:25:20.298Z,11.83
2023-05-14T02:27:49.421Z,12.67
2023-05-14T02:30:17.866Z,10.87
2023-05-14T02:32:47.449Z,11.33
2023-05-14T02:35:15.706Z,9.73
2023-05-14T02:37:43.894Z,10.97
2023-05-14T02:40:12.522Z,10.57
2023-05-14T02:42:40.693Z,8.67
2023-05-14T02:45:09.139Z,10.30
2023-05-14T02:47:38.253Z,9.33
2023-05-14T02:50:08.807Z,9.17
2023-05-14T02:52:37.127Z,9.97
2023-05-14T02:55:05.516Z,9.83
2023-05-14T02:57:33.675Z,9.53
2023-05-14T03:00:01.840Z,8.73
2023-05-14T03:02:30.509Z,8.93
2023-05-14T03:04:59.220Z,11.00
2023-05-14T03:07:28.719Z,11.27
2023-05-14T03:09:56.882Z,10.20
2023-05-14T03:12:25.062Z,9.13
2023-05-14T03:14:53.207Z,10.40
2023-05-14T03:17:21.410Z,15.17
2023-05-14T03:19:49.593Z,10.03
2023-05-14T03:22:17.804Z,9.83
2023-05-14T03:24:47.308Z,9.70
2023-05-14T03:27:15.512Z,9.67
2023-05-14T03:29:43.657Z,10.97
2023-05-14T03:32:11.820Z,11.27
2023-05-14T03:34:40.097Z,10.57
2023-05-14T03:37:08.283Z,9.07
2023-05-14T03:39:36.570Z,12.77
2023-05-14T03:42:06.511Z,12.57
2023-05-14T03:44:34.680Z,11.53
2023-05-14T03:47:02.842Z,9.13
2023-05-14T03:49:31.044Z,9.07
2023-05-14T03:51:59.372Z,10.43
2023-05-14T03:54:27.536Z,11.40
2023-05-14T03:56:55.691Z,11.23
2023-05-14T03:59:25.599Z,11.00
2023-05-14T04:01:53.742Z,11.33
2023-05-14T04:04:21.960Z,10.70
2023-05-14T04:06:50.138Z,10.07
2023-05-14T04:09:18.598Z,13.50
2023-05-14T04:11:46.761Z,12.73
2023-05-14T04:14:14.939Z,10.30
2023-05-14T04:16:44.491Z,12.53
2023-05-14T04:19:12.729Z,10.60
2023-05-14T04:21:40.957Z,9.03
2023-05-14T04:24:09.440Z,11.10
2023-05-14T04:26:37.589Z,9.00
2023-05-14T04:29:05.795Z,7.70
2023-05-14T04:31:34.018Z,7.77
2023-05-14T04:34:03.559Z,7.30
2023-05-14T04:36:31.688Z,8.23
2023-05-14T04:38:59.860Z,6.73
2023-05-14T04:41:28.027Z,7.83
2023-05-14T04:43:57.457Z,7.53
2023-05-14T04:46:25.703Z,6.10
2023-05-14T04:48:53.880Z,7.30
2023-05-14T04:51:23.381Z,7.07
2023-05-14T04:53:51.564Z,7.10
2023-05-14T04:56:19.701Z,6.73
2023-05-14T04:58:47.841Z,6.70
2023-05-14T05:01:16.116Z,6.70
2023-05-14T05:03:44.307Z,10.07
2023-05-14T05:06:12.503Z,6.20
2023-05-14T05:08:41.986Z,7.60
2023-05-14T05:11:10.252Z,7.33
2023-05-14T05:13:38.418Z,6.73
2023-05-14T05:16:07.033Z,6.87
2023-05-14T05:18:35.282Z,7.33
2023-05-14T05:21:03.487Z,7.43
2023-05-14T05:23:31.631Z,6.80
2023-05-14T05:26:01.141Z,8.00
2023-05-14T05:28:29.289Z,9.47
2023-05-14T05:30:57.523Z,9.73
2023-05-14T05:33:25.752Z,10.73
2023-05-14T05:35:53.937Z,8.23
2023-05-14T05:38:22.115Z,11.50
2023-05-14T05:40:50.269Z,11.97
2023-05-14T05:43:19.979Z,10.10
2023-05-14T05:45:48.121Z,11.00
2023-05-14T05:48:16.501Z,12.07
2023-05-14T05:50:47.460Z,11.83
2023-05-14T05:53:16.502Z,13.20
2023-05-14T05:55:44.703Z,9.67
2023-05-14T05:58:15.674Z,13.37
2023-05-14T06:00:45.351Z,11.00
2023-05-14T06:03:13.577Z,11.00
2023-05-14T06:05:41.945Z,10.13
2023-05-14T06:08:10.216Z,9.40
2023-05-14T06:10:38.412Z,6.93
2023-05-14T06:13:06.829Z,7.43
2023-05-14T06:15:35.015Z,7.17
2023-05-14T06:18:04.642Z,7.40
2023-05-14T06:20:32.813Z,8.40
2023-05-14T06:23:00.946Z,7.25
2023-05-14T06:25:29.160Z,9.13
2023-05-14T06:27:57.324Z,7.17
2023-05-14T06:30:25.747Z,7.38
2023-05-14T06:32:54.562Z,8.17
2023-05-14T06:35:25.259Z,8.97
2023-05-14T06:37:53.457Z,9.80
2023-05-14T06:40:21.926Z,8.75
2023-05-14T06:42:50.425Z,7.80
2023-05-14T06:45:18.579Z,7.40
2023-05-14T06:47:46.845Z,8.25
2023-05-14T06:50:15.022Z,8.15
2023-05-14T06:52:45.081Z,7.10
2023-05-14T06:55:13.314Z,8.43
2023-05-14T06:57:41.479Z,10.18
2023-05-14T07:00:10.236Z,11.48
2023-05-14T07:02:38.406Z,11.93
2023-05-14T07:05:07.037Z,13.27
2023-05-14T07:07:35.230Z,12.70
2023-05-14T07:10:04.924Z,13.27
2023-05-14T07:12:33.102Z,13.53
2023-05-14T07:15:01.254Z,15.70
2023-05-14T07:17:29.630Z,14.17
2023-05-14T07:19:57.839Z,14.17
2023-05-14T07:22:25.992Z,14.43
2023-05-14T07:24:54.147Z,14.47
2023-05-14T07:27:23.652Z,16.00
2023-05-14T07:29:51.947Z,16.37
2023-05-14T07:32:20.149Z,17.40
2023-05-14T07:34:48.786Z,17.03
2023-05-14T07:37:16.999Z,18.00
2023-05-14T07:39:45.222Z,18.43
2023-05-14T07:42:21.919Z,18.23
2023-05-14T07:44:57.957Z,19.90
2023-05-14T07:47:26.278Z,20.40
2023-05-14T07:49:56.176Z,20.10
2023-05-14T07:52:24.394Z,23.00
2023-05-14T07:54:52.916Z,26.47
2023-05-14T07:57:22.020Z,21.37
2023-05-14T07:59:50.881Z,23.13
2023-05-14T08:02:20.592Z,22.33
2023-05-14T08:04:48.923Z,24.00
2023-05-14T08:07:17.246Z,27.30
2023-05-14T08:09:45.412Z,26.87
2023-05-14T08:12:13.606Z,23.93
2023-05-14T08:14:42.280Z,23.03
2023-05-14T08:17:10.498Z,26.33
2023-05-14T08:19:40.150Z,26.67
2023-05-14T08:22:08.387Z,24.67
2023-05-14T08:24:36.766Z,26.17
2023-05-14T08:27:05.033Z,28.37
2023-05-14T08:29:33.163Z,26.40
2023-05-14T08:32:08.486Z,27.60
2023-05-14T08:34:45.428Z,26.40
2023-05-14T08:37:13.571Z,31.10
2023-05-14T08:39:41.827Z,30.87
2023-05-14T08:42:12.523Z,26.37
2023-05-14T08:44:45.541Z,28.07
2023-05-14T08:47:14.432Z,27.97
2023-05-14T08:49:43.345Z,26.60
2023-05-14T08:52:13.039Z,28.70
2023-05-14T08:54:41.544Z,29.83
2023-05-14T08:57:10.957Z,30.07
2023-05-14T08:59:39.306Z,27.00
2023-05-14T09:02:08.492Z,28.67
2023-05-14T09:04:37.965Z,28.43
2023-05-14T09:07:07.430Z,27.10
2023-05-14T09:09:37.036Z,27.57
2023-05-14T09:12:05.484Z,27.20
2023-05-14T09:14:34.723Z,26.67
2023-05-14T09:17:03.163Z,27.75
2023-05-14T09:19:31.384Z,28.00
2023-05-14T09:22:00.203Z,28.02
2023-05-14T09:24:29.494Z,27.63
2023-05-14T09:26:59.589Z,27.52
2023-05-14T09:29:27.833Z,29.30
2023-05-14T09:31:56.647Z,29.20
2023-05-14T09:34:28.314Z,29.83
2023-05-14T09:36:58.140Z,30.90
2023-05-14T09:39:26.662Z,28.20
2023-05-14T09:41:55.827Z,30.35
2023-05-14T09:44:25.809Z,29.33
2023-05-14T09:46:54.293Z,29.13
2023-05-14T09:49:22.879Z,28.90
2023-05-14T09:51:55.288Z,34.33
2023-05-14T09:54:23.604Z,30.93
2023-05-14T09:56:52.586Z,30.77
2023-05-14T09:59:22.045Z,32.37
2023-05-14T10:01:52.248Z,30.40
2023-05-14T10:04:20.944Z,30.87
2023-05-14T10:06:51.181Z,33.07
2023-05-14T10:09:23.070Z,31.57
2023-05-14T10:11:54.615Z,34.00
2023-05-14T10:14:26.680Z,37.80
2023-05-14T10:16:57.860Z,33.30
2023-05-14T10:19:26.594Z,31.30
2023-05-14T10:21:55.575Z,31.77
2023-05-14T10:24:23.915Z,31.80
2023-05-14T10:26:52.093Z,33.40
2023-05-14T10:29:20.715Z,30.37
2023-05-14T10:31:50.042Z,32.87
2023-05-14T10:34:37.520Z,35.27
2023-05-14T10:37:06.663Z,33.97
2023-05-14T10:39:48.127Z,30.73
2023-05-14T10:42:18.572Z,29.57
2023-05-14T10:44:55.466Z,34.00
2023-05-14T10:47:24.062Z,36.03
2023-05-14T10:49:55.420Z,34.30
2023-05-14T10:52:24.254Z,34.47
2023-05-14T10:54:52.995Z,32.83
2023-05-14T10:57:21.506Z,37.37
2023-05-14T10:59:53.079Z,34.67
2023-05-14T11:02:22.716Z,32.57
2023-05-14T11:04:56.285Z,34.70
2023-05-14T11:07:25.704Z,37.73
2023-05-14T11:09:54.047Z,34.97
2023-05-14T11:12:22.941Z,33.60
2023-05-14T11:14:52.217Z,31.27
2023-05-14T11:17:21.244Z,35.23
2023-05-14T11:19:51.171Z,28.37
2023-05-14T11:22:21.130Z,31.93
2023-05-14T11:24:49.369Z,31.53
2023-05-14T11:27:19.000Z,29.87
2023-05-14T11:29:47.630Z,27.17
2023-05-14T11:32:16.423Z,30.20
2023-05-14T11:34:45.646Z,26.07
2023-05-14T11:37:14.413Z,32.77
2023-05-14T11:39:49.886Z,27.40
2023-05-14T11:42:19.700Z,23.93
2023-05-14T11:44:48.998Z,21.17
2023-05-14T11:47:17.635Z,26.47
2023-05-14T11:49:45.881Z,27.60
2023-05-14T11:52:20.741Z,26.73
2023-05-14T11:54:50.730Z,26.67
2023-05-14T11:57:19.793Z,27.53
2023-05-14T11:59:50.027Z,27.57
2023-05-14T12:02:19.279Z,26.13
2023-05-14T12:04:51.848Z,26.30
2023-05-14T12:07:20.055Z,25.37
2023-05-14T12:09:50.657Z,23.03
2023-05-14T12:12:20.339Z,19.23
2023-05-14T12:14:48.778Z,19.80
2023-05-14T12:17:17.595Z,20.23
2023-05-14T12:19:46.409Z,19.80
2023-05-14T12:22:16.045Z,19.07
2023-05-14T12:24:45.129Z,21.20
2023-05-14T12:27:14.655Z,20.43
2023-05-14T12:29:44.871Z,19.43
2023-05-14T12:32:13.055Z,19.30
2023-05-14T12:34:41.247Z,19.20
2023-05-14T12:37:09.429Z,17.23
2023-05-14T12:39:37.637Z,17.90
2023-05-14T12:42:05.840Z,21.33
2023-05-14T12:44:35.335Z,18.80
2023-05-14T12:47:03.755Z,18.87
2023-05-14T12:49:32.104Z,13.93
2023-05-14T12:52:17.366Z,14.53
2023-05-14T12:54:48.396Z,15.57
2023-05-14T12:57:16.566Z,15.70
2023-05-14T12:59:46.118Z,15.77
2023-05-14T13:02:17.286Z,17.10
2023-05-14T13:04:45.644Z,11.40
2023-05-14T13:07:13.803Z,12.20
2023-05-14T13:09:42.007Z,17.83
2023-05-14T13:12:10.551Z,13.87
2023-05-14T13:14:38.738Z,13.67
2023-05-14T13:17:08.493Z,11.30
2023-05-14T13:19:36.734Z,11.43
2023-05-14T13:22:04.983Z,10.73
2023-05-14T13:24:33.147Z,13.37
2023-05-14T13:27:01.675Z,12.73
2023-05-14T13:29:31.515Z,15.37
2023-05-14T13:31:59.712Z,14.87
2023-05-14T13:34:29.252Z,12.40
2023-05-14T13:36:57.893Z,13.43
2023-05-14T13:39:27.206Z,12.37
2023-05-14T13:41:56.689Z,14.20
2023-05-14T13:44:25.050Z,11.80
2023-05-14T13:46:53.457Z,11.87
2023-05-14T13:49:21.757Z,11.00
2023-05-14T13:51:51.285Z,10.30
2023-05-14T13:54:19.596Z,15.30
2023-05-14T13:56:47.963Z,11.67
2023-05-14T13:59:16.186Z,10.53
2023-05-14T14:01:44.371Z,11.23
2023-05-14T14:04:12.551Z,13.20
2023-05-14T14:06:40.947Z,10.60
2023-05-14T14:09:10.819Z,10.63
2023-05-14T14:11:38.998Z,12.90
2023-05-14T14:14:07.191Z,13.73
2023-05-14T14:16:36.112Z,9.03
2023-05-14T14:19:04.524Z,8.93
2023-05-14T14:21:32.948Z,8.67
2023-05-14T14:24:01.245Z,7.57
2023-05-14T14:26:30.793Z,7.33
2023-05-14T14:28:59.243Z,6.73
2023-05-14T14:31:27.481Z,10.17
2023-05-14T14:33:55.689Z,6.80
2023-05-14T14:36:23.849Z,4.97
2023-05-14T14:38:51.996Z,9.33
2023-05-14T14:41:20.518Z,5.93
2023-05-14T14:43:50.061Z,6.53
2023-05-14T14:46:18.359Z,7.73
2023-05-14T14:48:46.595Z,6.10
2023-05-14T14:51:14.795Z,5.83
2023-05-14T14:53:42.990Z,5.63
2023-05-14T14:56:11.154Z,8.40
2023-05-14T14:58:39.376Z,5.07
2023-05-14T15:01:08.948Z,5.33
2023-05-14T15:03:37.259Z,5.30
2023-05-14T15:06:05.939Z,5.57
2023-05-14T15:08:35.336Z,5.93
2023-05-14T15:11:04.871Z,6.23
2023-05-14T15:13:33.121Z,8.73
2023-05-14T15:16:01.364Z,6.77
2023-05-14T15:18:30.941Z,7.93
2023-05-14T15:20:59.175Z,6.33
2023-05-14T15:23:27.368Z,6.00
2023-05-14T15:25:55.758Z,6.63
2023-05-14T15:28:23.909Z,6.57
2023-05-14T15:30:52.108Z,6.77
2023-05-14T15:33:20.585Z,7.00
2023-05-14T15:35:50.124Z,5.97
2023-05-14T15:38:18.413Z,7.80
2023-05-14T15:40:46.684Z,7.83
2023-05-14T15:43:14.849Z,6.70
2023-05-14T15:45:43.068Z,9.60
2023-05-14T15:48:11.336Z,8.33
2023-05-14T15:50:39.562Z,9.43
2023-05-14T15:53:09.304Z,10.87
2023-05-14T15:55:37.554Z,7.67
2023-05-14T15:58:06.214Z,10.03
2023-05-14T16:00:34.369Z,9.67
2023-05-14T16:03:02.654Z,9.07
2023-05-14T16:05:31.117Z,8.30
2023-05-14T16:08:00.132Z,8.77
2023-05-14T16:10:29.642Z,7.50
2023-05-14T16:12:57.792Z,7.27
2023-05-14T16:15:25.957Z,9.10
2023-05-14T16:17:54.155Z,8.83
2023-05-14T16:20:23.191Z,7.77
2023-05-14T16:22:51.582Z,6.80
2023-05-14T16:25:19.752Z,6.93
2023-05-14T16:27:49.301Z,7.37
2023-05-14T16:30:17.531Z,6.47
2023-05-14T16:32:48.462Z,6.87
2023-05-14T16:35:16.835Z,6.00
2023-05-14T16:37:45.035Z,6.47
2023-05-14T16:40:13.997Z,7.43
2023-05-14T16:42:42.171Z,8.13
2023-05-14T16:45:12.557Z,6.80
2023-05-14T16:47:41.364Z,8.33
2023-05-14T16:50:09.845Z,7.47
2023-05-14T16:52:38.004Z,5.57
2023-05-14T16:55:06.561Z,6.50
2023-05-14T16:57:35.245Z,8.10
2023-05-14T17:00:06.125Z,7.77
2023-05-14T17:02:35.958Z,8.40
2023-05-14T17:05:04.524Z,6.27
2023-05-14T17:07:32.741Z,4.90
2023-05-14T17:10:01.240Z,4.43
2023-05-14T17:12:31.910Z,5.27
2023-05-14T17:15:02.974Z,5.13
2023-05-14T17:17:33.755Z,6.47
2023-05-14T17:20:05.857Z,4.07
2023-05-14T17:22:34.199Z,7.20
2023-05-14T17:25:02.388Z,8.63
2023-05-14T17:27:33.124Z,12.20
2023-05-14T17:30:01.430Z,11.30
2023-05-14T17:32:31.080Z,10.17
2023-05-14T17:34:59.677Z,10.37
2023-05-14T17:37:29.273Z,9.87
2023-05-14T17:39:57.673Z,10.93
2023-05-14T17:42:26.109Z,10.07
2023-05-14T17:44:54.741Z,16.90
2023-05-14T17:47:23.174Z,8.40
2023-05-14T17:49:54.146Z,13.07
2023-05-14T17:52:25.321Z,12.50
2023-05-14T17:54:54.857Z,9.80
2023-05-14T17:57:23.581Z,10.50
2023-05-14T17:59:51.773Z,8.30
2023-05-14T18:02:19.970Z,10.17
2023-05-14T18:04:48.153Z,9.97
2023-05-14T18:07:16.339Z,9.90
2023-05-14T18:09:44.510Z,8.97
2023-05-14T18:12:14.026Z,8.30
2023-05-14T18:14:44.787Z,10.47
2023-05-14T18:17:13.699Z,9.67
2023-05-14T18:19:41.901Z,11.17
2023-05-14T18:22:10.130Z,8.30
2023-05-14T18:24:38.293Z,9.10
2023-05-14T18:27:06.685Z,9.60
2023-05-14T18:29:36.192Z,7.73
2023-05-14T18:32:04.394Z,7.93
2023-05-14T18:34:32.564Z,10.30
2023-05-14T18:37:00.982Z,11.00
2023-05-14T18:39:29.117Z,9.60
2023-05-14T18:41:58.399Z,9.83
2023-05-14T18:44:26.575Z,10.47
2023-05-14T18:46:56.247Z,9.23
2023-05-14T18:49:24.390Z,11.67
2023-05-14T18:51:52.591Z,11.63
2023-05-14T18:54:20.765Z,13.97
2023-05-14T18:56:48.961Z,11.00
2023-05-14T18:59:17.129Z,9.03
2023-05-14T19:01:45.707Z,12.03
2023-05-14T19:04:15.736Z,11.00
2023-05-14T19:06:43.965Z,8.97
2023-05-14T19:09:12.170Z,11.03
2023-05-14T19:11:40.312Z,10.27
2023-05-14T19:14:09.296Z,11.30
2023-05-14T19:16:37.520Z,7.87
2023-05-14T19:19:05.774Z,11.03
2023-05-14T19:21:35.606Z,10.83
2023-05-14T19:24:03.811Z,12.77
2023-05-14T19:26:32.034Z,10.83
2023-05-14T19:29:00.218Z,13.57
2023-05-14T19:31:28.860Z,12.13
2023-05-14T19:33:57.057Z,11.57
2023-05-14T19:36:25.299Z,11.33
2023-05-14T19:38:54.797Z,11.73
2023-05-14T19:41:23.034Z,13.17
2023-05-14T19:43:51.195Z,18.87
2023-05-14T19:46:19.454Z,10.70
2023-05-14T19:48:48.425Z,12.20
2023-05-14T19:51:16.610Z,13.33
2023-05-14T19:53:45.154Z,12.17
2023-05-14T19:56:15.382Z,11.87
2023-05-14T19:58:44.116Z,12.70
2023-05-14T20:01:12.629Z,12.73
2023-05-14T20:03:40.947Z,13.03
2023-05-14T20:06:09.115Z,15.83
2023-05-14T20:08:37.301Z,12.53
2023-05-14T20:11:05.554Z,10.67
2023-05-14T20:13:36.413Z,10.50
2023-05-14T20:16:04.638Z,11.00
2023-05-14T20:18:32.934Z,10.03
2023-05-14T20:21:01.293Z,12.83
2023-05-14T20:23:29.457Z,10.00
2023-05-14T20:25:57.650Z,9.13
2023-05-14T20:28:25.889Z,14.53
2023-05-14T20:30:55.625Z,11.80
2023-05-14T20:33:24.230Z,9.70
2023-05-14T20:35:52.470Z,11.10
2023-05-14T20:38:21.655Z,9.30
2023-05-14T20:40:49.821Z,10.40
2023-05-14T20:43:18.192Z,11.83
2023-05-14T20:45:46.394Z,10.97
2023-05-14T20:48:17.505Z,11.13
2023-05-14T20:50:46.232Z,8.27
2023-05-14T20:53:14.389Z,9.70
2023-05-14T20:55:42.564Z,13.20
2023-05-14T20:58:10.729Z,13.67
2023-05-14T21:00:39.133Z,9.60
2023-05-14T21:03:07.438Z,10.97
2023-05-14T21:05:37.032Z,9.90
2023-05-14T21:08:05.228Z,9.23
2023-05-14T21:10:33.396Z,9.57
2023-05-14T21:13:01.529Z,10.77
2023-05-14T21:15:30.608Z,11.03
2023-05-14T21:17:58.786Z,11.97
2023-05-14T21:20:26.966Z,11.27
2023-05-14T21:22:56.484Z,10.90
2023-05-14T21:25:24.861Z,10.20
2023-05-14T21:27:53.303Z,13.97
2023-05-14T21:30:21.567Z,10.17
2023-05-14T21:32:49.725Z,11.27
2023-05-14T21:35:18.015Z,11.83
2023-05-14T21:37:46.194Z,16.10
2023-05-14T21:40:16.222Z,16.97
2023-05-14T21:42:44.442Z,16.50
2023-05-14T21:45:12.831Z,11.70
2023-05-14T21:47:41.292Z,14.67
2023-05-14T21:50:09.845Z,13.13
2023-05-14T21:52:38.825Z,13.13
2023-05-14T21:55:07.422Z,14.20
2023-05-14T21:57:36.951Z,14.67
2023-05-14T22:00:07.789Z,18.93
2023-05-14T22:02:36.092Z,14.97
2023-05-14T22:05:05.203Z,15.23
2023-05-14T22:07:33.780Z,15.70
2023-05-14T22:10:02.168Z,21.00
2023-05-14T22:12:30.319Z,16.73
2023-05-14T22:14:59.885Z,15.33
2023-05-14T22:17:28.773Z,16.57
2023-05-14T22:19:56.997Z,19.60
2023-05-14T22:22:25.164Z,18.70
2023-05-14T22:24:53.373Z,25.50
2023-05-14T22:27:21.576Z,21.23
2023-05-14T22:29:49.741Z,23.73
2023-05-14T22:32:19.255Z,23.40
2023-05-14T22:34:47.459Z,23.83
2023-05-14T22:37:15.630Z,25.23
2023-05-14T22:39:43.810Z,23.33
2023-05-14T22:42:12.054Z,20.67
2023-05-14T22:44:40.302Z,21.70
2023-05-14T22:47:08.520Z,25.00
2023-05-14T22:49:38.027Z,26.53
2023-05-14T22:52:06.474Z,23.77
2023-05-14T22:54:34.634Z,24.17
2023-05-14T22:57:03.193Z,27.27
2023-05-14T22:59:31.360Z,24.47
2023-05-14T23:01:59.605Z,30.87
2023-05-14T23:04:27.893Z,24.20
2023-05-14T23:06:57.450Z,29.03
2023-05-14T23:09:25.658Z,24.60
2023-05-14T23:11:53.983Z,28.47
2023-05-14T23:14:22.591Z,30.50
2023-05-14T23:16:50.894Z,27.67
2023-05-14T23:19:19.952Z,26.30
2023-05-14T23:21:48.129Z,30.67
2023-05-14T23:24:17.621Z,34.77
2023-05-14T23:26:45.914Z,34.93
2023-05-14T23:29:14.067Z,30.37
2023-05-14T23:31:43.569Z,30.73
2023-05-14T23:34:11.934Z,30.17
2023-05-14T23:36:40.444Z,35.77
2023-05-14T23:39:08.643Z,34.17
2023-05-14T23:41:38.193Z,36.70
2023-05-14T23:44:07.205Z,35.67
2023-05-14T23:46:35.432Z,40.33
2023-05-14T23:49:03.603Z,37.90
2023-05-14T23:51:31.772Z,35.37
2023-05-14T23:53:59.945Z,37.87
2023-05-14T23:56:29.022Z,37.67
2023-05-14T23:58:58.726Z,38.87
